Time;durP1;ratioP1;P1;durP2;ratioP2;P2;SDS_P1;SDS_P2;PMS_P1;PMS_P2;Temp;Humidity;BMP_temperature;BMP_pressure;BME280_temperature;BME280_humidity;BME280_pressure;Samples;Min_cycle;Max_cycle;Signal;HPM_P1;HPM_P2
2023/03/23 00:02:06;;;;;;;0.40;0.40;;;;;;;11.82;89.45;100241.41;5034638;28;96584;-28
2023/03/23 00:04:32;;;;;;;3.65;0.80;;;;;;;11.85;89.84;100246.63;5036433;28;96826;-28
2023/03/23 00:07:00;;;;;;;1.83;0.88;;;;;;;11.86;89.59;100229.34;5035844;28;98004;-28
2023/03/23 00:09:26;;;;;;;0.68;0.43;;;;;;;11.83;89.65;100232.31;5035645;27;99556;-29
2023/03/23 00:11:51;;;;;;;1.00;0.70;;;;;;;11.81;89.15;100234.28;5035609;27;96456;-28
2023/03/23 00:14:22;;;;;;;0.20;0.20;;;;;;;11.81;89.18;100234.28;5036167;27;96810;-29
2023/03/23 00:16:48;;;;;;;0.90;0.55;;;;;;;11.81;88.63;100232.41;5034290;27;99215;-29
2023/03/23 00:19:14;;;;;;;2.03;0.75;;;;;;;11.81;88.97;100224.28;5034225;28;101585;-28
2023/03/23 00:21:41;;;;;;;1.63;0.50;;;;;;;11.82;88.69;100215.16;5035760;27;96529;-28
2023/03/23 00:24:18;;;;;;;1.33;0.75;;;;;;;11.82;88.77;100222.41;5034286;28;96806;-28
2023/03/23 00:26:47;;;;;;;1.08;0.63;;;;;;;11.82;88.67;100219.69;5033187;28;100916;-28
2023/03/23 00:29:21;;;;;;;0.82;0.50;;;;;;;11.81;88.08;100209.84;5034275;28;100951;-29
2023/03/23 00:31:48;;;;;;;1.00;0.50;;;;;;;11.82;87.77;100217.00;5034327;28;96537;-29
2023/03/23 00:34:19;;;;;;;0.75;0.47;;;;;;;11.84;88.20;100215.88;5034171;28;96817;-29
2023/03/23 00:36:56;;;;;;;1.03;0.77;;;;;;;11.84;87.91;100215.88;5033488;28;101193;-30
2023/03/23 00:39:24;;;;;;;0.50;0.35;;;;;;;11.84;88.12;100209.59;5034911;27;99688;-28
2023/03/23 00:41:49;;;;;;;0.93;0.40;;;;;;;11.84;87.83;100212.31;5034053;28;96653;-28
2023/03/23 00:44:16;;;;;;;1.00;0.60;;;;;;;11.85;88.12;100204.06;5035647;27;96751;-28
2023/03/23 00:46:44;;;;;;;1.45;0.60;;;;;;;11.83;87.77;100200.59;5033676;28;101241;-28
2023/03/23 00:49:13;;;;;;;0.90;0.50;;;;;;;11.81;87.70;100194.41;5033644;28;101527;-29
2023/03/23 00:51:40;;;;;;;0.35;0.35;;;;;;;11.86;87.88;100210.34;5035378;27;96571;-29
2023/03/23 00:54:05;;;;;;;1.80;0.45;;;;;;;11.86;88.05;100200.34;5034337;28;96845;-28
2023/03/23 00:56:31;;;;;;;1.17;0.80;;;;;;;11.85;88.28;100201.34;5034901;27;99504;-28
2023/03/23 00:58:56;;;;;;;2.85;0.77;;;;;;;11.83;87.86;100207.88;5035106;28;97394;-28
2023/03/23 01:01:21;;;;;;;0.95;0.60;;;;;;;11.81;87.68;100210.69;5034933;27;96549;-28
2023/03/23 01:03:47;;;;;;;1.02;0.52;;;;;;;11.80;87.40;100203.56;5035348;27;96884;-29
2023/03/23 01:06:12;;;;;;;0.52;0.47;;;;;;;11.81;87.28;100199.84;5034946;27;97946;-28
2023/03/23 01:08:44;;;;;;;0.50;0.40;;;;;;;11.81;87.63;100180.84;5034273;27;105771;-28
2023/03/23 01:11:12;;;;;;;1.30;1.20;;;;;;;11.80;87.10;100187.28;5033613;28;96690;-29
2023/03/23 01:13:37;;;;;;;1.13;0.68;;;;;;;11.80;87.90;100179.13;5033717;28;96892;-28
2023/03/23 01:16:03;;;;;;;0.38;0.30;;;;;;;11.81;87.73;100189.00;5034982;27;97982;-29
2023/03/23 01:18:28;;;;;;;2.38;0.70;;;;;;;11.78;87.96;100172.97;5035126;28;97911;-28
2023/03/23 01:20:54;;;;;;;1.88;0.60;;;;;;;11.77;87.93;100181.22;5034925;27;96593;-32
2023/03/23 01:23:19;;;;;;;0.55;0.45;;;;;;;11.77;87.97;100184.78;5034634;27;96813;-30
2023/03/23 01:25:45;;;;;;;0.82;0.57;;;;;;;11.76;88.10;100172.22;5034338;27;98093;-29
2023/03/23 01:28:11;;;;;;;1.00;0.73;;;;;;;11.74;88.19;100167.88;5034192;27;99406;-29
2023/03/23 01:30:36;;;;;;;0.47;0.43;;;;;;;11.70;88.59;100161.81;5034708;27;96477;-28
2023/03/23 01:33:02;;;;;;;0.75;0.63;;;;;;;11.68;88.41;100161.09;5035159;27;96838;-28
2023/03/23 01:35:27;;;;;;;0.80;0.40;;;;;;;11.68;87.99;100172.81;5034529;27;97473;-29
2023/03/23 01:37:53;;;;;;;0.73;0.60;;;;;;;11.70;88.68;100183.53;5034264;27;97802;-28
2023/03/23 01:40:19;;;;;;;1.63;0.55;;;;;;;11.71;88.74;100177.13;5033145;28;96532;-29
2023/03/23 01:42:44;;;;;;;0.70;0.50;;;;;;;11.67;88.81;100167.50;5035156;27;96784;-29
2023/03/23 01:45:24;;;;;;;0.45;0.35;;;;;;;11.64;88.80;100155.03;5034317;28;99768;-28
2023/03/23 01:47:55;;;;;;;0.70;0.40;;;;;;;11.64;88.85;100154.19;5034152;27;99584;-28
2023/03/23 01:50:23;;;;;;;2.05;0.60;;;;;;;11.62;88.84;100156.13;5032764;28;96707;-28
2023/03/23 01:52:53;;;;;;;0.93;0.65;;;;;;;11.63;88.78;100152.44;5033043;28;96889;-28
2023/03/23 01:55:19;;;;;;;2.72;0.60;;;;;;;11.63;89.10;100147.00;5032717;28;99154;-28
2023/03/23 01:57:45;;;;;;;0.68;0.45;;;;;;;11.61;89.23;100140.84;5032706;28;100763;-29
2023/03/23 02:00:15;;;;;;;1.63;0.40;;;;;;;11.62;89.22;100150.72;5034441;28;96467;-28
2023/03/23 02:02:46;;;;;;;0.45;0.35;;;;;;;11.61;89.45;100143.56;5034337;27;96846;-28
2023/03/23 02:05:19;;;;;;;1.58;0.75;;;;;;;11.64;89.11;100159.59;5032691;28;101390;-28
2023/03/23 02:07:46;;;;;;;0.30;0.30;;;;;;;11.60;89.29;100155.38;5033120;28;99062;-28
2023/03/23 02:10:11;;;;;;;0.98;0.50;;;;;;;11.61;89.42;100154.41;5033067;28;96497;-29
2023/03/23 02:12:37;;;;;;;1.85;0.50;;;;;;;11.61;89.57;100160.72;5034429;28;96710;-29
2023/03/23 02:15:04;;;;;;;1.08;0.57;;;;;;;11.58;89.85;100162.78;5033592;28;98148;-28
2023/03/23 02:17:40;;;;;;;1.80;0.88;;;;;;;11.59;89.81;100161.81;5033879;28;97891;-28
2023/03/23 02:20:18;;;;;;;0.68;0.45;;;;;;;11.58;89.75;100160.06;5032824;27;96613;-28
2023/03/23 02:23:02;;;;;;;1.00;0.60;;;;;;;11.58;90.00;100157.34;5035736;28;96719;-29
2023/03/23 02:25:45;;;;;;;0.82;0.50;;;;;;;11.59;89.69;100161.81;5037549;28;98010;-28
2023/03/23 02:28:29;;;;;;;1.05;0.40;;;;;;;11.58;89.60;100169.06;5037268;28;97993;-28
2023/03/23 02:31:00;;;;;;;1.23;0.68;;;;;;;11.61;89.76;100151.72;5036194;28;96840;-28
2023/03/23 02:33:34;;;;;;;0.53;0.47;;;;;;;11.59;89.46;100137.41;5038097;27;96688;-28
2023/03/23 02:36:10;;;;;;;3.83;0.88;;;;;;;11.59;89.57;100143.69;5035871;27;100886;-29
2023/03/23 02:38:42;;;;;;;3.40;0.50;;;;;;;11.60;89.63;100139.09;5035834;28;100962;-28
2023/03/23 02:41:10;;;;;;;0.88;0.50;;;;;;;11.62;89.73;100151.56;5035556;28;96708;-28
2023/03/23 02:43:43;;;;;;;0.65;0.50;;;;;;;11.62;89.49;100140.72;5035927;28;96881;-29
2023/03/23 02:46:10;;;;;;;1.05;0.47;;;;;;;11.65;89.89;100131.47;5037514;27;97334;-29
2023/03/23 02:48:38;;;;;;;0.30;0.30;;;;;;;11.61;89.46;100125.44;5035466;28;101024;-28
2023/03/23 02:51:04;;;;;;;1.45;0.68;;;;;;;11.63;89.12;100147.00;5035908;28;96777;-28
2023/03/23 02:53:33;;;;;;;1.05;0.60;;;;;;;11.63;88.96;100137.03;5035892;28;96875;-28
2023/03/23 02:56:02;;;;;;;1.73;0.70;;;;;;;11.64;89.45;100149.59;5035612;28;101149;-28
2023/03/23 02:58:29;;;;;;;1.25;0.30;;;;;;;11.62;89.60;100145.28;5035850;28;101163;-28
2023/03/23 03:00:56;;;;;;;1.52;0.40;;;;;;;11.61;89.55;100154.41;5035685;28;96664;-29
2023/03/23 03:03:25;;;;;;;1.65;0.60;;;;;;;11.62;89.36;100151.56;5035642;28;96802;-29
2023/03/23 03:06:14;;;;;;;1.00;0.57;;;;;;;11.66;89.57;100149.50;5034945;28;101189;-28
2023/03/23 03:08:47;;;;;;;1.40;0.75;;;;;;;11.65;89.63;100128.75;5035233;28;100505;-28
2023/03/23 03:11:18;;;;;;;3.20;0.65;;;;;;;11.62;89.97;100129.88;5035605;28;96534;-28
2023/03/23 03:14:30;;;;;;;1.38;0.50;;;;;;;11.64;89.60;100143.31;5035636;27;97262;-29
2023/03/23 03:17:08;;;;;;;3.90;0.50;;;;;;;11.62;89.95;100129.00;4994303;28;98280;-29
2023/03/23 03:19:40;;;;;;;0.63;0.47;;;;;;;11.60;89.75;100134.53;4977429;28;101388;-30
2023/03/23 03:22:09;;;;;;;0.90;0.50;;;;;;;11.62;89.46;100121.72;5021456;27;96714;-29
2023/03/23 03:24:37;;;;;;;0.98;0.55;;;;;;;11.63;89.32;100117.16;5019309;28;97917;-30
2023/03/23 03:27:06;;;;;;;1.38;0.75;;;;;;;11.62;89.67;100126.28;5034411;28;100894;-28
2023/03/23 03:29:41;;;;;;;1.73;0.45;;;;;;;11.58;89.62;100122.94;5034669;28;100846;-28
2023/03/23 03:32:10;;;;;;;0.80;0.20;;;;;;;11.61;89.27;100119.16;5035961;27;96618;-28
2023/03/23 03:34:35;;;;;;;0.98;0.55;;;;;;;11.60;89.61;100126.41;5035268;28;96887;-29
2023/03/23 03:37:01;;;;;;;0.68;0.35;;;;;;;11.59;89.79;100126.53;5036682;27;97390;-28
2023/03/23 03:39:27;;;;;;;0.25;0.25;;;;;;;11.58;89.85;100131.09;5036024;27;99657;-28
2023/03/23 03:41:53;;;;;;;0.80;0.50;;;;;;;11.58;89.75;100139.22;5034942;28;96653;-28
2023/03/23 03:44:19;;;;;;;1.00;0.68;;;;;;;11.58;89.59;100141.06;5035109;28;96923;-28
2023/03/23 03:46:45;;;;;;;2.33;0.32;;;;;;;11.59;89.36;100142.81;5036050;27;98203;-28
2023/03/23 03:49:15;;;;;;;0.85;0.50;;;;;;;11.56;89.50;100124.94;5036317;27;99245;-28
2023/03/23 03:51:41;;;;;;;0.88;0.32;;;;;;;11.58;89.41;100131.09;5036225;27;96647;-28
2023/03/23 03:54:06;;;;;;;0.65;0.38;;;;;;;11.58;89.23;100141.06;5034880;28;96966;-28
2023/03/23 03:56:35;;;;;;;0.52;0.43;;;;;;;11.55;89.39;100147.59;5035727;27;97867;-28
2023/03/23 03:59:02;;;;;;;2.38;0.60;;;;;;;11.54;89.36;100142.31;5034362;28;100708;-29
2023/03/23 04:01:28;;;;;;;0.40;0.38;;;;;;;11.55;88.74;100125.91;5034562;28;96767;-29
2023/03/23 04:03:54;;;;;;;2.05;0.43;;;;;;;11.57;89.02;100152.91;5036253;27;96758;-29
2023/03/23 04:06:21;;;;;;;0.93;0.45;;;;;;;11.56;89.08;100162.91;5034446;28;99963;-29
2023/03/23 04:08:46;;;;;;;0.57;0.40;;;;;;;11.53;88.93;100160.41;5034222;28;101064;-29
2023/03/23 04:11:13;;;;;;;0.20;0.20;;;;;;;11.54;88.93;100166.72;5036188;27;96613;-30
2023/03/23 04:13:39;;;;;;;1.30;0.43;;;;;;;11.51;88.26;100158.81;5036329;27;96822;-28
2023/03/23 04:16:05;;;;;;;0.35;0.35;;;;;;;11.52;88.54;100161.41;5034009;28;99327;-28
2023/03/23 04:18:34;;;;;;;0.75;0.43;;;;;;;11.51;88.66;100143.38;5035438;27;99808;-28
2023/03/23 04:21:01;;;;;;;0.35;0.25;;;;;;;11.55;88.42;100154.88;5033860;28;96766;-30
2023/03/23 04:23:30;;;;;;;1.30;0.60;;;;;;;11.53;88.37;100165.84;5035971;28;96859;-28
2023/03/23 04:25:57;;;;;;;2.05;0.65;;;;;;;11.53;88.55;100156.84;5033895;28;101886;-28
2023/03/23 04:28:24;;;;;;;3.78;0.35;;;;;;;11.48;89.36;100165.31;5034221;27;98985;-30
2023/03/23 04:30:52;;;;;;;1.52;0.60;;;;;;;11.40;90.65;100176.75;5033841;28;96657;-30
2023/03/23 04:33:19;;;;;;;1.00;0.63;;;;;;;11.35;91.01;100176.25;5035582;27;96609;-28
2023/03/23 04:35:47;;;;;;;0.50;0.30;;;;;;;11.32;91.41;100181.91;5034018;28;98900;-30
2023/03/23 04:38:15;;;;;;;0.38;0.20;;;;;;;11.30;91.40;100191.13;5035621;27;98879;-28
2023/03/23 04:40:42;;;;;;;4.15;0.80;;;;;;;11.20;92.00;100183.72;5034078;28;96611;-28
2023/03/23 04:43:07;;;;;;;1.13;0.32;;;;;;;11.14;92.69;100181.44;5034133;28;96864;-28
2023/03/23 04:45:37;;;;;;;0.45;0.17;;;;;;;11.14;93.16;100183.28;5034134;28;97731;-29
2023/03/23 04:48:04;;;;;;;3.05;0.65;;;;;;;11.07;93.57;100195.56;5033700;28;98884;-29
2023/03/23 04:50:32;;;;;;;1.42;0.75;;;;;;;11.05;93.97;100204.66;5034154;28;96634;-28
2023/03/23 04:53:03;;;;;;;1.90;0.38;;;;;;;11.07;93.90;100198.28;5033951;28;96960;-29
2023/03/23 04:55:30;;;;;;;4.13;0.40;;;;;;;11.03;94.04;100209.31;5035234;27;97902;-31
2023/03/23 04:57:56;;;;;;;0.50;0.25;;;;;;;11.03;94.25;100212.03;5033625;28;100870;-28
2023/03/23 05:00:21;;;;;;;4.97;0.50;;;;;;;10.96;94.54;100201.75;5033920;28;96592;-30
2023/03/23 05:02:51;;;;;;;0.35;0.17;;;;;;;10.94;95.26;100199.19;5035794;27;96788;-28
2023/03/23 05:05:18;;;;;;;2.90;0.63;;;;;;;10.92;95.36;100198.44;5033572;28;100953;-29
2023/03/23 05:07:43;;;;;;;0.90;0.43;;;;;;;10.88;95.94;100201.47;5033400;28;100795;-28
2023/03/23 05:10:11;;;;;;;2.28;0.65;;;;;;;10.85;96.92;100189.03;5034688;27;96697;-28
2023/03/23 05:12:37;;;;;;;0.77;0.32;;;;;;;10.83;96.56;100189.13;5033853;28;96886;-28
2023/03/23 05:15:03;;;;;;;0.20;0.20;;;;;;;10.83;96.31;100205.38;5034983;28;98115;-28
2023/03/23 05:17:29;;;;;;;1.00;0.32;;;;;;;10.82;96.46;100205.47;5033190;28;101046;-29
2023/03/23 05:19:56;;;;;;;2.33;0.65;;;;;;;10.77;96.79;100211.25;5034831;28;96497;-28
2023/03/23 05:22:23;;;;;;;2.47;0.55;;;;;;;10.78;97.26;100212.13;5033459;28;96874;-29
2023/03/23 05:24:51;;;;;;;0.55;0.35;;;;;;;10.75;97.30;100205.09;5033101;28;99378;-29
2023/03/23 05:27:18;;;;;;;3.78;0.30;;;;;;;10.78;97.37;100204.84;5032920;28;100991;-29
2023/03/23 05:29:48;;;;;;;1.20;0.52;;;;;;;10.83;97.89;100218.94;5033299;28;96779;-29
2023/03/23 05:32:14;;;;;;;0.60;0.30;;;;;;;10.84;97.85;100225.22;5034794;27;97264;-28
2023/03/23 05:34:40;;;;;;;1.33;0.32;;;;;;;10.87;97.28;100229.53;5032621;28;99922;-29
2023/03/23 05:37:05;;;;;;;1.17;0.30;;;;;;;10.84;97.32;100234.22;5034484;27;99659;-28
2023/03/23 05:39:32;;;;;;;1.10;0.68;;;;;;;10.86;97.22;100239.50;5034433;27;96615;-28
2023/03/23 05:41:58;;;;;;;1.63;0.68;;;;;;;10.81;96.97;100237.13;5033225;28;96962;-28
2023/03/23 05:44:23;;;;;;;4.05;0.77;;;;;;;10.83;97.35;100242.44;5032941;28;101377;-28
2023/03/23 05:46:49;;;;;;;1.00;0.70;;;;;;;10.77;97.68;100229.34;5033123;28;99263;-29
2023/03/23 05:49:16;;;;;;;1.48;0.38;;;;;;;10.74;98.29;100243.13;5034469;28;96666;-29
2023/03/23 05:51:42;;;;;;;1.33;0.50;;;;;;;10.69;98.77;100250.72;5033552;28;96926;-28
2023/03/23 05:54:08;;;;;;;0.30;0.20;;;;;;;10.63;98.85;100241.19;5032798;28;100926;-29
2023/03/23 05:56:34;;;;;;;0.28;0.22;;;;;;;10.63;98.88;100243.91;5035432;27;99072;-28
2023/03/23 05:59:00;;;;;;;1.60;0.65;;;;;;;10.62;98.21;100243.00;5037670;27;96618;-28
2023/03/23 06:01:25;;;;;;;2.20;0.82;;;;;;;10.62;99.04;100248.41;5037960;27;96798;-28
2023/03/23 06:03:53;;;;;;;1.65;0.60;;;;;;;10.63;99.19;100249.31;5037508;27;99692;-29
2023/03/23 06:06:22;;;;;;;0.73;0.50;;;;;;;10.65;99.06;100266.28;5036139;28;101143;-29
2023/03/23 06:08:50;;;;;;;2.72;0.60;;;;;;;10.69;99.16;100272.38;5036540;28;96640;-29
2023/03/23 06:11:15;;;;;;;2.55;0.40;;;;;;;10.71;99.02;100267.72;5038039;27;96744;-30
2023/03/23 06:13:41;;;;;;;2.90;0.63;;;;;;;10.71;98.94;100283.97;5037420;27;99295;-28
2023/03/23 06:16:08;;;;;;;2.10;0.57;;;;;;;10.69;98.97;100283.22;5037728;28;99336;-28
2023/03/23 06:18:36;;;;;;;2.67;0.73;;;;;;;10.66;100.00;100273.47;5019736;28;96710;-28
2023/03/23 06:21:02;;;;;;;1.75;0.60;;;;;;;10.61;99.81;100279.22;5037357;27;96844;-28
2023/03/23 06:23:28;;;;;;;1.25;0.50;;;;;;;10.62;99.72;100286.34;5035677;28;100810;-28
2023/03/23 06:25:57;;;;;;;1.55;0.45;;;;;;;10.60;100.00;100291.00;5037019;27;99758;-28
2023/03/23 06:28:22;;;;;;;0.80;0.50;;;;;;;10.57;100.00;100282.25;5037666;27;96451;-29
2023/03/23 06:30:48;;;;;;;1.10;0.45;;;;;;;10.59;100.00;100296.53;5036978;27;96899;-29
2023/03/23 06:33:13;;;;;;;1.58;0.63;;;;;;;10.59;100.00;100299.25;5037118;27;98034;-28
2023/03/23 06:35:38;;;;;;;0.75;0.50;;;;;;;10.58;100.00;100302.91;5036273;27;101364;-28
2023/03/23 06:38:04;;;;;;;4.22;0.63;;;;;;;10.60;100.00;100312.66;5035718;28;100323;-29
2023/03/23 06:40:29;;;;;;;2.20;0.90;;;;;;;10.61;100.00;100306.28;5037715;27;96872;-28
2023/03/23 06:42:57;;;;;;;1.40;0.43;;;;;;;10.61;100.00;100306.28;5037105;27;102972;-28
2023/03/23 06:45:22;;;;;;;1.85;0.80;;;;;;;10.58;99.85;100295.69;5035612;28;100911;-28
2023/03/23 06:47:50;;;;;;;5.78;0.57;;;;;;;10.60;99.57;100299.13;5036340;27;99927;-28
2023/03/23 06:50:16;;;;;;;8.95;0.80;;;;;;;10.59;99.71;100321.78;5035723;28;96801;-28
2023/03/23 06:52:49;;;;;;;1.00;0.50;;;;;;;10.58;99.41;100313.75;5037174;27;97891;-28
2023/03/23 06:55:15;;;;;;;2.65;0.65;;;;;;;10.59;99.33;100304.66;5033306;28;100898;-30
2023/03/23 06:57:42;;;;;;;2.03;0.38;;;;;;;10.57;99.68;100317.44;5033340;28;96999;-32
2023/03/23 07:00:11;;;;;;;2.92;0.57;;;;;;;10.55;99.85;100313.97;5033483;28;97302;-29
2023/03/23 07:02:36;;;;;;;1.30;0.63;;;;;;;10.56;99.91;100307.59;5034156;27;99880;-28
2023/03/23 07:05:03;;;;;;;2.75;0.70;;;;;;;10.56;99.67;100323.84;5034921;28;97805;-30
2023/03/23 07:07:29;;;;;;;1.13;0.45;;;;;;;10.57;99.91;100320.16;5034270;27;96873;-29
2023/03/23 07:09:54;;;;;;;0.60;0.35;;;;;;;10.58;99.31;100320.06;5034803;28;97074;-28
2023/03/23 07:12:20;;;;;;;2.83;0.55;;;;;;;10.56;99.31;100313.88;5034752;28;100858;-28
2023/03/23 07:14:46;;;;;;;6.03;0.60;;;;;;;10.58;99.16;100311.94;5036482;27;99598;-29
2023/03/23 07:17:11;;;;;;;1.00;0.50;;;;;;;10.56;99.79;100322.00;5035354;28;96696;-29
2023/03/23 07:19:37;;;;;;;0.88;0.30;;;;;;;10.57;100.00;100329.13;5036856;28;96821;-28
2023/03/23 07:22:05;;;;;;;1.60;0.93;;;;;;;10.59;99.85;100334.47;5036355;27;99377;-28
2023/03/23 07:24:30;;;;;;;0.45;0.38;;;;;;;10.65;100.00;100335.84;5035117;28;100757;-28
2023/03/23 07:26:56;;;;;;;1.75;0.55;;;;;;;10.70;99.72;100322.84;5036043;27;99790;-28
2023/03/23 07:29:21;;;;;;;0.95;0.43;;;;;;;10.72;100.00;100313.63;5037195;27;96768;-29
2023/03/23 07:31:46;;;;;;;1.67;0.52;;;;;;;10.70;100.00;100315.63;5036329;27;97947;-29
2023/03/23 07:34:12;;;;;;;0.77;0.32;;;;;;;10.73;99.97;100315.38;5036165;27;99271;-29
2023/03/23 07:36:37;;;;;;;2.75;0.75;;;;;;;10.74;100.00;100319.81;5036151;27;96529;-28
2023/03/23 07:39:07;;;;;;;0.73;0.43;;;;;;;10.73;100.00;100322.66;5036618;27;96702;-31
2023/03/23 07:41:33;;;;;;;3.92;0.32;;;;;;;10.72;99.66;100321.75;5034746;28;101114;-28
2023/03/23 07:43:58;;;;;;;2.08;0.65;;;;;;;10.91;99.82;100332.16;5035979;28;99120;-28
2023/03/23 07:46:23;;;;;;;1.30;0.47;;;;;;;10.97;99.12;100336.31;5036383;27;97177;-29
2023/03/23 07:48:49;;;;;;;2.05;0.43;;;;;;;11.22;99.33;100338.09;5036428;28;96794;-28
2023/03/23 07:51:18;;;;;;;0.80;0.43;;;;;;;11.30;98.09;100346.56;5036047;28;98157;-30
2023/03/23 07:53:44;;;;;;;1.35;0.50;;;;;;;11.25;97.51;100348.75;5034956;28;100835;-29
2023/03/23 07:56:12;;;;;;;1.77;0.65;;;;;;;11.15;98.09;100356.63;5036477;27;96558;-29
2023/03/23 07:58:37;;;;;;;5.43;0.65;;;;;;;11.08;98.57;100357.19;5034848;28;96896;-28
2023/03/23 08:01:03;;;;;;;0.47;0.28;;;;;;;11.03;99.39;100350.25;5035538;28;97263;-28
2023/03/23 08:03:29;;;;;;;1.23;0.63;;;;;;;11.00;99.08;100342.34;5036035;28;97965;-28
2023/03/23 08:05:58;;;;;;;3.28;0.60;;;;;;;11.18;99.74;100347.44;5036341;27;96540;-28
2023/03/23 08:08:24;;;;;;;0.75;0.35;;;;;;;11.32;99.39;100341.88;5034667;28;96829;-28
2023/03/23 08:10:50;;;;;;;4.10;1.00;;;;;;;11.65;98.29;100345.78;5035578;27;99377;-28
2023/03/23 08:13:15;;;;;;;1.42;0.57;;;;;;;11.87;96.58;100350.53;5035949;28;98124;-29
2023/03/23 08:15:41;;;;;;;0.75;0.47;;;;;;;12.10;95.82;100344.19;5035646;28;96688;-28
2023/03/23 08:18:06;;;;;;;1.30;0.70;;;;;;;12.33;94.45;100352.47;5035999;27;96801;-28
2023/03/23 08:20:32;;;;;;;0.90;0.35;;;;;;;12.39;93.56;100349.25;5034780;27;97919;-28
2023/03/23 08:22:59;;;;;;;0.98;0.50;;;;;;;12.38;93.83;100349.38;5035483;28;98115;-31
2023/03/23 08:25:25;;;;;;;2.05;0.63;;;;;;;12.26;93.51;100359.34;5035504;27;96759;-28
2023/03/23 08:27:51;;;;;;;1.23;0.47;;;;;;;12.13;93.56;100355.81;5033881;28;97058;-28
2023/03/23 08:30:26;;;;;;;3.40;0.68;;;;;;;12.06;93.95;100371.69;5035366;27;97492;-28
2023/03/23 08:32:52;;;;;;;3.90;0.85;;;;;;;12.04;93.80;100369.13;5035278;27;99323;-28
2023/03/23 08:35:19;;;;;;;3.60;0.70;;;;;;;12.27;93.68;100370.06;5034255;28;96667;-28
2023/03/23 08:37:45;;;;;;;1.67;0.70;;;;;;;12.63;92.07;100370.06;5034360;28;96810;-28
2023/03/23 08:40:13;;;;;;;2.58;0.55;;;;;;;12.81;88.50;100363.19;5035473;28;97450;-30
2023/03/23 08:42:42;;;;;;;1.38;0.88;;;;;;;12.71;88.69;100367.63;5035243;27;99331;-28
2023/03/23 08:45:11;;;;;;;4.45;0.82;;;;;;;12.56;90.23;100375.13;5035453;28;96595;-28
2023/03/23 08:47:37;;;;;;;3.20;0.73;;;;;;;12.65;90.56;100382.56;5034158;28;96821;-28
2023/03/23 08:50:05;;;;;;;5.78;0.60;;;;;;;12.94;89.82;100382.13;5033307;28;101445;-28
2023/03/23 08:52:31;;;;;;;5.72;0.75;;;;;;;13.11;86.93;100378.94;5033565;28;101086;-28
2023/03/23 08:54:56;;;;;;;3.25;0.70;;;;;;;13.36;87.76;100386.00;5035432;27;96721;-29
2023/03/23 08:57:23;;;;;;;1.02;0.40;;;;;;;13.61;86.45;100378.59;5035204;27;96772;-29
2023/03/23 08:59:48;;;;;;;4.25;0.70;;;;;;;13.56;84.24;100376.25;5033594;28;101199;-28
2023/03/23 09:02:13;;;;;;;5.03;0.65;;;;;;;13.39;84.90;100379.47;5035162;27;97212;-30
2023/03/23 09:04:42;;;;;;;1.92;0.80;;;;;;;13.50;85.63;100365.84;5035112;27;96725;-28
2023/03/23 09:07:08;;;;;;;1.63;0.80;;;;;;;13.29;85.20;100373.03;5035575;27;96840;-28
2023/03/23 09:09:34;;;;;;;4.57;0.98;;;;;;;13.25;85.72;100372.41;5033537;28;100992;-28
2023/03/23 09:11:59;;;;;;;0.55;0.30;;;;;;;13.28;83.57;100364.03;5034765;28;97866;-29
2023/03/23 09:14:25;;;;;;;2.45;0.38;;;;;;;13.22;84.23;100372.63;5034799;28;96691;-28
2023/03/23 09:16:51;;;;;;;3.92;0.70;;;;;;;13.17;85.97;100381.16;5035191;27;96785;-28
2023/03/23 09:19:16;;;;;;;5.82;0.55;;;;;;;13.26;85.05;100378.69;5034529;28;98540;-28
2023/03/23 09:21:42;;;;;;;1.88;0.57;;;;;;;13.24;84.46;100389.69;5034592;27;97653;-29
2023/03/23 09:24:07;;;;;;;0.90;0.30;;;;;;;13.20;84.62;100384.63;5035184;27;96751;-29
2023/03/23 09:26:32;;;;;;;4.22;1.20;;;;;;;13.04;84.55;100387.69;5034482;27;96956;-28
2023/03/23 09:28:58;;;;;;;3.78;0.82;;;;;;;12.92;83.17;100397.72;5035069;27;97934;-28
2023/03/23 09:31:26;;;;;;;3.25;0.90;;;;;;;12.87;83.97;100398.06;5034230;27;97438;-28
2023/03/23 09:33:52;;;;;;;1.23;0.80;;;;;;;12.87;83.94;100398.06;5033301;28;96693;-28
2023/03/23 09:36:21;;;;;;;2.45;0.85;;;;;;;12.90;83.45;100399.69;5033601;28;96814;-29
2023/03/23 09:38:46;;;;;;;5.50;0.95;;;;;;;13.06;82.79;100405.63;5034023;27;98201;-28
2023/03/23 09:41:33;;;;;;;3.30;1.05;;;;;;;13.17;82.49;100411.06;5033995;28;99222;-28
2023/03/23 09:44:06;;;;;;;3.58;1.00;;;;;;;13.25;81.64;100409.59;5034970;28;96807;-28
2023/03/23 09:46:46;;;;;;;1.17;0.52;;;;;;;13.45;81.98;100406.19;5033281;28;96741;-28
2023/03/23 09:49:19;;;;;;;5.60;0.80;;;;;;;13.56;79.88;100406.19;5033110;28;100831;-30
2023/03/23 09:51:53;;;;;;;4.18;0.75;;;;;;;13.94;78.07;100398.56;5034450;28;97926;-28
2023/03/23 09:54:24;;;;;;;2.88;0.60;;;;;;;14.20;77.08;100412.72;5033198;28;96600;-28
2023/03/23 09:56:51;;;;;;;2.53;0.63;;;;;;;14.17;75.70;100413.00;5033577;28;96812;-28
2023/03/23 09:59:20;;;;;;;1.05;0.52;;;;;;;14.02;78.64;100424.19;5032775;28;101278;-28
2023/03/23 10:01:52;;;;;;;1.25;0.55;;;;;;;13.78;78.38;100424.34;5032605;28;100739;-29
2023/03/23 10:04:39;;;;;;;5.50;1.05;;;;;;;13.50;78.25;100431.16;5033785;27;96550;-28
2023/03/23 10:07:11;;;;;;;2.83;0.75;;;;;;;13.47;78.97;100436.84;5033018;28;96867;-28
2023/03/23 10:09:37;;;;;;;3.17;0.82;;;;;;;13.48;79.06;100435.00;5034044;28;99348;-28
2023/03/23 10:12:11;;;;;;;2.88;1.10;;;;;;;13.55;78.56;100423.47;5032559;27;100666;-31
2023/03/23 10:15:08;;;;;;;2.53;0.70;;;;;;;13.84;78.15;100428.41;5032981;28;96582;-28
2023/03/23 10:17:42;;;;;;;3.20;0.70;;;;;;;14.14;77.22;100429.59;5033082;28;96799;-28
2023/03/23 10:20:20;;;;;;;0.82;0.65;;;;;;;14.07;77.09;100433.84;5032541;28;101686;-29
2023/03/23 10:23:09;;;;;;;0.75;0.47;;;;;;;14.00;76.51;100438.91;5034157;27;97356;-29
2023/03/23 10:25:40;;;;;;;3.95;0.98;;;;;;;14.21;76.38;100428.97;5012955;27;97302;-28
2023/03/23 10:28:15;;;;;;;2.25;1.00;;;;;;;14.39;72.79;100431.97;5032290;28;97042;-28
2023/03/23 10:30:43;;;;;;;3.08;1.05;;;;;;;14.72;73.18;100429.28;5033169;27;98186;-28
2023/03/23 10:33:18;;;;;;;2.28;0.73;;;;;;;15.12;72.70;100428.56;5032219;28;101080;-29
2023/03/23 10:36:01;;;;;;;1.80;0.77;;;;;;;15.27;71.09;100425.34;5032709;28;96803;-28
2023/03/23 10:38:34;;;;;;;4.78;0.88;;;;;;;15.38;70.08;100416.22;5032692;28;96580;-29
2023/03/23 10:41:09;;;;;;;4.90;0.70;;;;;;;15.16;71.59;100409.06;5032277;28;100834;-28
2023/03/23 10:43:35;;;;;;;4.15;0.73;;;;;;;14.86;70.84;100421.63;5036102;27;98306;-28
2023/03/23 10:46:10;;;;;;;2.58;0.80;;;;;;;14.99;71.59;100423.28;5037587;27;96615;-28
2023/03/23 10:48:38;;;;;;;5.03;0.60;;;;;;;15.45;70.65;100427.47;5036360;28;96752;-29
2023/03/23 10:51:12;;;;;;;3.40;0.98;;;;;;;15.39;70.44;100431.56;5035697;28;101373;-28
2023/03/23 10:53:49;;;;;;;6.88;1.02;;;;;;;15.05;70.71;100433.69;5035630;28;101080;-29
2023/03/23 10:56:23;;;;;;;1.38;0.55;;;;;;;15.10;71.83;100431.41;5036895;28;96576;-30
2023/03/23 10:58:49;;;;;;;2.85;0.82;;;;;;;15.07;71.73;100428.97;5037460;27;96591;-29
2023/03/23 11:01:17;;;;;;;5.20;1.08;;;;;;;15.13;71.25;100431.13;5036830;27;97952;-28
2023/03/23 11:03:48;;;;;;;7.15;1.13;;;;;;;14.88;69.33;100423.38;5036036;27;98055;-28
2023/03/23 11:06:22;;;;;;;2.35;0.93;;;;;;;14.57;71.29;100426.00;5037271;27;96592;-30
2023/03/23 11:08:52;;;;;;;3.33;0.75;;;;;;;14.23;71.77;100413.34;5035385;28;96763;-31
2023/03/23 11:11:24;;;;;;;2.80;0.85;;;;;;;14.07;71.78;100428.38;5031128;28;99475;-29
2023/03/23 11:13:56;;;;;;;2.85;1.13;;;;;;;13.90;73.60;100425.19;5035733;28;101006;-29
2023/03/23 11:16:33;;;;;;;2.83;0.70;;;;;;;13.86;74.68;100437.31;5035718;28;96588;-28
2023/03/23 11:19:11;;;;;;;3.08;0.75;;;;;;;13.60;74.03;100439.44;5037007;27;96625;-29
2023/03/23 11:21:38;;;;;;;1.75;0.57;;;;;;;13.47;74.45;100449.59;5034814;28;99006;-29
2023/03/23 11:24:04;;;;;;;3.17;0.82;;;;;;;13.37;75.39;100434.00;5034851;28;101019;-28
2023/03/23 11:26:33;;;;;;;5.13;0.73;;;;;;;13.41;75.89;100447.34;5034597;28;97371;-29
2023/03/23 11:29:18;;;;;;;1.75;0.75;;;;;;;13.38;76.43;100451.19;5035231;28;96527;-28
2023/03/23 11:31:52;;;;;;;1.73;0.52;;;;;;;13.44;76.61;100442.53;5034482;28;99041;-29